sensor_id;sensor_type;location;lat;lon;timestamp;P1;durP1;ratioP1;P2;durP2;ratioP2
20367;SDS011;10343;52.402;9.796;2022-12-07T00:01:41;16.10;;;1.15;;
20367;SDS011;10343;52.402;9.796;2022-12-07T00:04:11;14.32;;;1.33;;
20367;SDS011;10343;52.402;9.796;2022-12-07T00:06:41;12.93;;;1.73;;
20367;SDS011;10343;52.402;9.796;2022-12-07T00:09:12;12.85;;;1.10;;
20367;SDS011;10343;52.402;9.796;2022-12-07T00:11:41;14.25;;;3.10;;
20367;SDS011;10343;52.402;9.796;2022-12-07T00:14:10;15.57;;;1.25;;
20367;SDS011;10343;52.402;9.796;2022-12-07T00:16:42;14.63;;;1.10;;
20367;SDS011;10343;52.402;9.796;2022-12-07T00:19:12;16.17;;;1.80;;
20367;SDS011;10343;52.402;9.796;2022-12-07T00:21:40;13.90;;;2.13;;
20367;SDS011;10343;52.402;9.796;2022-12-07T00:24:09;11.95;;;0.90;;
20367;SDS011;10343;52.402;9.796;2022-12-07T00:26:39;12.70;;;1.85;;
20367;SDS011;10343;52.402;9.796;2022-12-07T00:29:09;12.95;;;1.50;;
20367;SDS011;10343;52.402;9.796;2022-12-07T00:31:42;14.65;;;1.45;;
20367;SDS011;10343;52.402;9.796;2022-12-07T00:34:11;9.95;;;0.63;;
20367;SDS011;10343;52.402;9.796;2022-12-07T00:36:41;11.20;;;1.23;;
20367;SDS011;10343;52.402;9.796;2022-12-07T00:39:09;10.90;;;1.10;;
20367;SDS011;10343;52.402;9.796;2022-12-07T00:41:37;11.63;;;0.93;;
20367;SDS011;10343;52.402;9.796;2022-12-07T00:44:05;10.38;;;1.52;;
20367;SDS011;10343;52.402;9.796;2022-12-07T00:46:33;10.35;;;1.42;;
20367;SDS011;10343;52.402;9.796;2022-12-07T00:49:03;9.23;;;0.68;;
20367;SDS011;10343;52.402;9.796;2022-12-07T00:51:31;9.73;;;0.85;;
20367;SDS011;10343;52.402;9.796;2022-12-07T00:53:59;9.48;;;1.25;;
20367;SDS011;10343;52.402;9.796;2022-12-07T00:56:27;13.77;;;2.53;;
20367;SDS011;10343;52.402;9.796;2022-12-07T00:58:57;10.88;;;1.77;;
20367;SDS011;10343;52.402;9.796;2022-12-07T01:01:27;8.57;;;0.65;;
20367;SDS011;10343;52.402;9.796;2022-12-07T01:03:56;11.10;;;1.15;;
20367;SDS011;10343;52.402;9.796;2022-12-07T01:06:26;10.25;;;1.48;;
20367;SDS011;10343;52.402;9.796;2022-12-07T01:08:55;9.07;;;0.70;;
20367;SDS011;10343;52.402;9.796;2022-12-07T01:11:25;9.35;;;0.98;;
20367;SDS011;10343;52.402;9.796;2022-12-07T01:13:56;13.05;;;1.17;;
20367;SDS011;10343;52.402;9.796;2022-12-07T01:16:28;10.77;;;1.42;;
20367;SDS011;10343;52.402;9.796;2022-12-07T01:18:57;9.38;;;1.15;;
20367;SDS011;10343;52.402;9.796;2022-12-07T01:21:29;10.43;;;1.05;;
20367;SDS011;10343;52.402;9.796;2022-12-07T01:24:01;14.80;;;1.38;;
20367;SDS011;10343;52.402;9.796;2022-12-07T01:26:29;10.07;;;1.40;;
20367;SDS011;10343;52.402;9.796;2022-12-07T01:28:57;12.25;;;1.45;;
20367;SDS011;10343;52.402;9.796;2022-12-07T01:31:27;13.88;;;1.98;;
20367;SDS011;10343;52.402;9.796;2022-12-07T01:33:56;13.73;;;2.75;;
20367;SDS011;10343;52.402;9.796;2022-12-07T01:36:28;11.25;;;1.15;;
20367;SDS011;10343;52.402;9.796;2022-12-07T01:38:58;11.52;;;1.52;;
20367;SDS011;10343;52.402;9.796;2022-12-07T01:41:28;12.20;;;1.95;;
20367;SDS011;10343;52.402;9.796;2022-12-07T01:44:08;12.93;;;1.92;;
20367;SDS011;10343;52.402;9.796;2022-12-07T01:46:38;11.95;;;1.60;;
20367;SDS011;10343;52.402;9.796;2022-12-07T01:49:08;10.95;;;1.45;;
20367;SDS011;10343;52.402;9.796;2022-12-07T01:51:41;11.55;;;1.67;;
20367;SDS011;10343;52.402;9.796;2022-12-07T01:54:11;14.27;;;1.95;;
20367;SDS011;10343;52.402;9.796;2022-12-07T01:56:42;11.15;;;1.88;;
20367;SDS011;10343;52.402;9.796;2022-12-07T01:59:16;10.55;;;1.15;;
20367;SDS011;10343;52.402;9.796;2022-12-07T02:01:47;13.35;;;1.30;;
20367;SDS011;10343;52.402;9.796;2022-12-07T02:04:15;11.98;;;1.10;;
20367;SDS011;10343;52.402;9.796;2022-12-07T02:06:45;10.32;;;1.42;;
20367;SDS011;10343;52.402;9.796;2022-12-07T02:09:14;9.77;;;0.80;;
20367;SDS011;10343;52.402;9.796;2022-12-07T02:11:42;10.23;;;1.13;;
20367;SDS011;10343;52.402;9.796;2022-12-07T02:14:10;13.43;;;2.08;;
20367;SDS011;10343;52.402;9.796;2022-12-07T02:16:42;17.00;;;1.67;;
20367;SDS011;10343;52.402;9.796;2022-12-07T02:22:31;11.05;;;1.08;;
20367;SDS011;10343;52.402;9.796;2022-12-07T02:25:18;15.77;;;1.30;;
20367;SDS011;10343;52.402;9.796;2022-12-07T02:27:51;10.77;;;0.90;;
20367;SDS011;10343;52.402;9.796;2022-12-07T02:30:26;10.00;;;0.68;;
20367;SDS011;10343;52.402;9.796;2022-12-07T02:32:59;13.07;;;1.33;;
20367;SDS011;10343;52.402;9.796;2022-12-07T02:35:32;12.35;;;1.50;;
20367;SDS011;10343;52.402;9.796;2022-12-07T02:38:08;11.98;;;1.65;;
20367;SDS011;10343;52.402;9.796;2022-12-07T02:40:43;11.40;;;0.85;;
20367;SDS011;10343;52.402;9.796;2022-12-07T02:43:16;10.07;;;0.88;;
20367;SDS011;10343;52.402;9.796;2022-12-07T02:45:48;10.00;;;0.70;;
20367;SDS011;10343;52.402;9.796;2022-12-07T02:48:19;10.32;;;0.68;;
20367;SDS011;10343;52.402;9.796;2022-12-07T02:50:48;10.32;;;0.68;;
20367;SDS011;10343;52.402;9.796;2022-12-07T02:53:30;8.05;;;0.77;;
20367;SDS011;10343;52.402;9.796;2022-12-07T02:55:59;11.68;;;0.82;;
20367;SDS011;10343;52.402;9.796;2022-12-07T02:58:36;7.78;;;0.73;;
20367;SDS011;10343;52.402;9.796;2022-12-07T03:01:17;11.27;;;0.80;;
20367;SDS011;10343;52.402;9.796;2022-12-07T03:03:58;8.50;;;0.73;;
20367;SDS011;10343;52.402;9.796;2022-12-07T03:06:35;9.65;;;0.77;;
20367;SDS011;10343;52.402;9.796;2022-12-07T03:09:11;7.45;;;0.45;;
20367;SDS011;10343;52.402;9.796;2022-12-07T03:11:47;9.02;;;0.43;;
20367;SDS011;10343;52.402;9.796;2022-12-07T03:14:20;10.10;;;0.98;;
20367;SDS011;10343;52.402;9.796;2022-12-07T03:16:52;9.90;;;0.55;;
20367;SDS011;10343;52.402;9.796;2022-12-07T03:19:26;9.05;;;0.60;;
20367;SDS011;10343;52.402;9.796;2022-12-07T03:21:56;13.25;;;1.15;;
20367;SDS011;10343;52.402;9.796;2022-12-07T03:24:27;8.43;;;0.47;;
20367;SDS011;10343;52.402;9.796;2022-12-07T03:26:59;8.93;;;1.15;;
20367;SDS011;10343;52.402;9.796;2022-12-07T03:29:34;9.35;;;0.80;;
20367;SDS011;10343;52.402;9.796;2022-12-07T03:32:06;8.30;;;0.52;;
20367;SDS011;10343;52.402;9.796;2022-12-07T03:34:38;8.45;;;0.30;;
20367;SDS011;10343;52.402;9.796;2022-12-07T03:37:12;8.88;;;0.60;;
20367;SDS011;10343;52.402;9.796;2022-12-07T03:39:48;7.78;;;0.35;;
20367;SDS011;10343;52.402;9.796;2022-12-07T03:42:25;5.82;;;0.25;;
20367;SDS011;10343;52.402;9.796;2022-12-07T03:44:53;8.88;;;0.47;;
20367;SDS011;10343;52.402;9.796;2022-12-07T03:47:25;7.75;;;0.55;;
20367;SDS011;10343;52.402;9.796;2022-12-07T03:49:58;8.82;;;0.22;;
20367;SDS011;10343;52.402;9.796;2022-12-07T03:52:31;4.75;;;0.30;;
20367;SDS011;10343;52.402;9.796;2022-12-07T03:55:05;5.97;;;0.20;;
20367;SDS011;10343;52.402;9.796;2022-12-07T03:57:36;5.07;;;0.20;;
20367;SDS011;10343;52.402;9.796;2022-12-07T04:00:07;9.05;;;0.20;;
20367;SDS011;10343;52.402;9.796;2022-12-07T04:02:41;6.47;;;0.20;;
20367;SDS011;10343;52.402;9.796;2022-12-07T04:05:10;5.88;;;0.20;;
20367;SDS011;10343;52.402;9.796;2022-12-07T04:07:38;8.88;;;0.50;;
20367;SDS011;10343;52.402;9.796;2022-12-07T04:10:06;6.10;;;0.40;;
20367;SDS011;10343;52.402;9.796;2022-12-07T04:12:35;8.15;;;0.40;;
20367;SDS011;10343;52.402;9.796;2022-12-07T04:15:03;5.75;;;0.32;;
20367;SDS011;10343;52.402;9.796;2022-12-07T04:17:31;9.63;;;2.08;;
20367;SDS011;10343;52.402;9.796;2022-12-07T04:20:01;9.05;;;0.60;;
20367;SDS011;10343;52.402;9.796;2022-12-07T04:22:30;7.38;;;0.35;;
20367;SDS011;10343;52.402;9.796;2022-12-07T04:24:58;7.47;;;0.20;;
20367;SDS011;10343;52.402;9.796;2022-12-07T04:27:26;7.07;;;0.20;;
20367;SDS011;10343;52.402;9.796;2022-12-07T04:29:54;12.50;;;0.75;;
20367;SDS011;10343;52.402;9.796;2022-12-07T04:32:22;8.88;;;0.70;;
20367;SDS011;10343;52.402;9.796;2022-12-07T04:34:51;7.90;;;0.30;;
20367;SDS011;10343;52.402;9.796;2022-12-07T04:37:22;5.72;;;0.20;;
20367;SDS011;10343;52.402;9.796;2022-12-07T04:39:51;6.70;;;0.35;;
20367;SDS011;10343;52.402;9.796;2022-12-07T04:42:18;6.45;;;0.30;;
20367;SDS011;10343;52.402;9.796;2022-12-07T04:44:46;7.80;;;0.30;;
20367;SDS011;10343;52.402;9.796;2022-12-07T04:47:14;9.05;;;0.30;;
20367;SDS011;10343;52.402;9.796;2022-12-07T04:49:42;5.80;;;0.20;;
20367;SDS011;10343;52.402;9.796;2022-12-07T04:52:10;8.50;;;0.35;;
20367;SDS011;10343;52.402;9.796;2022-12-07T04:54:39;9.07;;;0.20;;
20367;SDS011;10343;52.402;9.796;2022-12-07T04:57:07;12.75;;;0.82;;
20367;SDS011;10343;52.402;9.796;2022-12-07T04:59:35;9.02;;;0.50;;
20367;SDS011;10343;52.402;9.796;2022-12-07T05:02:10;9.55;;;0.20;;
20367;SDS011;10343;52.402;9.796;2022-12-07T05:04:38;5.78;;;0.35;;
20367;SDS011;10343;52.402;9.796;2022-12-07T05:07:06;12.70;;;0.47;;
20367;SDS011;10343;52.402;9.796;2022-12-07T05:09:34;11.57;;;0.73;;
20367;SDS011;10343;52.402;9.796;2022-12-07T05:12:04;10.40;;;0.20;;
20367;SDS011;10343;52.402;9.796;2022-12-07T05:14:32;7.28;;;0.30;;
20367;SDS011;10343;52.402;9.796;2022-12-07T05:16:59;8.07;;;0.20;;
20367;SDS011;10343;52.402;9.796;2022-12-07T05:19:27;4.53;;;0.20;;
20367;SDS011;10343;52.402;9.796;2022-12-07T05:21:55;10.85;;;0.43;;
20367;SDS011;10343;52.402;9.796;2022-12-07T05:24:23;9.15;;;0.40;;
20367;SDS011;10343;52.402;9.796;2022-12-07T05:26:51;6.78;;;0.60;;
20367;SDS011;10343;52.402;9.796;2022-12-07T05:29:21;9.18;;;0.40;;
20367;SDS011;10343;52.402;9.796;2022-12-07T05:31:49;8.40;;;0.35;;
20367;SDS011;10343;52.402;9.796;2022-12-07T05:34:17;8.32;;;0.20;;
20367;SDS011;10343;52.402;9.796;2022-12-07T05:36:45;5.65;;;0.40;;
20367;SDS011;10343;52.402;9.796;2022-12-07T05:39:13;7.40;;;0.20;;
20367;SDS011;10343;52.402;9.796;2022-12-07T05:41:41;5.25;;;0.38;;
20367;SDS011;10343;52.402;9.796;2022-12-07T05:44:29;4.97;;;0.10;;
20367;SDS011;10343;52.402;9.796;2022-12-07T05:46:57;8.32;;;0.10;;
20367;SDS011;10343;52.402;9.796;2022-12-07T05:49:25;7.65;;;0.28;;
20367;SDS011;10343;52.402;9.796;2022-12-07T05:51:53;8.98;;;0.20;;
20367;SDS011;10343;52.402;9.796;2022-12-07T05:54:21;6.53;;;0.10;;
20367;SDS011;10343;52.402;9.796;2022-12-07T05:56:50;8.07;;;1.08;;
20367;SDS011;10343;52.402;9.796;2022-12-07T05:59:18;8.30;;;0.40;;
20367;SDS011;10343;52.402;9.796;2022-12-07T06:01:55;3.13;;;0.20;;
20367;SDS011;10343;52.402;9.796;2022-12-07T06:04:26;9.23;;;0.17;;
20367;SDS011;10343;52.402;9.796;2022-12-07T06:06:55;9.07;;;0.22;;
20367;SDS011;10343;52.402;9.796;2022-12-07T06:09:25;5.97;;;0.10;;
20367;SDS011;10343;52.402;9.796;2022-12-07T06:11:54;6.43;;;0.10;;
20367;SDS011;10343;52.402;9.796;2022-12-07T06:14:41;4.57;;;0.20;;
20367;SDS011;10343;52.402;9.796;2022-12-07T06:17:12;6.05;;;0.75;;
20367;SDS011;10343;52.402;9.796;2022-12-07T06:19:45;7.68;;;0.20;;
20367;SDS011;10343;52.402;9.796;2022-12-07T06:22:13;7.70;;;0.10;;
20367;SDS011;10343;52.402;9.796;2022-12-07T06:24:42;6.70;;;0.10;;
20367;SDS011;10343;52.402;9.796;2022-12-07T06:27:10;4.65;;;0.10;;
20367;SDS011;10343;52.402;9.796;2022-12-07T06:29:40;5.32;;;0.10;;
20367;SDS011;10343;52.402;9.796;2022-12-07T06:32:08;6.57;;;0.10;;
20367;SDS011;10343;52.402;9.796;2022-12-07T06:34:38;3.33;;;0.10;;
20367;SDS011;10343;52.402;9.796;2022-12-07T06:37:06;2.97;;;0.10;;
20367;SDS011;10343;52.402;9.796;2022-12-07T06:39:34;2.15;;;0.05;;
20367;SDS011;10343;52.402;9.796;2022-12-07T06:42:02;3.97;;;0.10;;
20367;SDS011;10343;52.402;9.796;2022-12-07T06:44:30;4.40;;;0.20;;
20367;SDS011;10343;52.402;9.796;2022-12-07T06:46:59;5.95;;;0.10;;
20367;SDS011;10343;52.402;9.796;2022-12-07T06:49:50;3.78;;;0.10;;
20367;SDS011;10343;52.402;9.796;2022-12-07T06:52:18;5.28;;;0.70;;
20367;SDS011;10343;52.402;9.796;2022-12-07T06:54:46;5.75;;;0.00;;
20367;SDS011;10343;52.402;9.796;2022-12-07T06:57:14;6.43;;;0.10;;
20367;SDS011;10343;52.402;9.796;2022-12-07T06:59:43;5.45;;;0.10;;
20367;SDS011;10343;52.402;9.796;2022-12-07T07:02:11;4.38;;;0.00;;
20367;SDS011;10343;52.402;9.796;2022-12-07T07:04:40;6.72;;;0.10;;
20367;SDS011;10343;52.402;9.796;2022-12-07T07:07:12;6.15;;;0.10;;
20367;SDS011;10343;52.402;9.796;2022-12-07T07:09:41;4.97;;;0.10;;
20367;SDS011;10343;52.402;9.796;2022-12-07T07:12:09;13.10;;;0.10;;
20367;SDS011;10343;52.402;9.796;2022-12-07T07:14:37;8.27;;;0.10;;
20367;SDS011;10343;52.402;9.796;2022-12-07T07:17:06;7.10;;;0.00;;
20367;SDS011;10343;52.402;9.796;2022-12-07T07:19:34;4.35;;;0.00;;
20367;SDS011;10343;52.402;9.796;2022-12-07T07:22:04;2.92;;;0.05;;
20367;SDS011;10343;52.402;9.796;2022-12-07T07:24:35;2.53;;;0.08;;
20367;SDS011;10343;52.402;9.796;2022-12-07T07:27:04;4.57;;;0.00;;
20367;SDS011;10343;52.402;9.796;2022-12-07T07:38:44;1.15;;;0.00;;
20367;SDS011;10343;52.402;9.796;2022-12-07T08:28:52;1.42;;;0.00;;
20367;SDS011;10343;52.402;9.796;2022-12-07T08:31:56;0.32;;;0.00;;
20367;SDS011;10343;52.402;9.796;2022-12-07T08:35:27;0.45;;;0.00;;
20367;SDS011;10343;52.402;9.796;2022-12-07T08:37:59;3.85;;;0.00;;
20367;SDS011;10343;52.402;9.796;2022-12-07T08:40:29;1.45;;;0.00;;
20367;SDS011;10343;52.402;9.796;2022-12-07T08:43:02;2.90;;;0.00;;
20367;SDS011;10343;52.402;9.796;2022-12-07T08:45:46;0.68;;;0.00;;
20367;SDS011;10343;52.402;9.796;2022-12-07T08:48:26;0.60;;;0.00;;
20367;SDS011;10343;52.402;9.796;2022-12-07T10:18:15;0.88;;;0.08;;
20367;SDS011;10343;52.402;9.796;2022-12-07T10:21:00;0.05;;;0.00;;
20367;SDS011;10343;52.402;9.796;2022-12-07T10:23:32;2.60;;;0.00;;
20367;SDS011;10343;52.402;9.796;2022-12-07T10:28:54;1.05;;;0.00;;
20367;SDS011;10343;52.402;9.796;2022-12-07T10:31:24;1.55;;;0.00;;
20367;SDS011;10343;52.402;9.796;2022-12-07T10:37:16;4.70;;;0.00;;
20367;SDS011;10343;52.402;9.796;2022-12-07T10:39:51;1.27;;;0.00;;
20367;SDS011;10343;52.402;9.796;2022-12-07T10:42:26;2.42;;;0.00;;
20367;SDS011;10343;52.402;9.796;2022-12-07T10:45:06;8.05;;;0.00;;
20367;SDS011;10343;52.402;9.796;2022-12-07T10:47:36;2.78;;;0.00;;
20367;SDS011;10343;52.402;9.796;2022-12-07T10:50:23;5.50;;;0.15;;
20367;SDS011;10343;52.402;9.796;2022-12-07T10:56:14;2.97;;;0.00;;
20367;SDS011;10343;52.402;9.796;2022-12-07T10:59:01;0.90;;;0.00;;
20367;SDS011;10343;52.402;9.796;2022-12-07T11:01:44;4.95;;;0.00;;
20367;SDS011;10343;52.402;9.796;2022-12-07T11:04:21;4.90;;;0.00;;
20367;SDS011;10343;52.402;9.796;2022-12-07T11:06:58;2.22;;;0.00;;
20367;SDS011;10343;52.402;9.796;2022-12-07T11:09:44;3.53;;;0.00;;
20367;SDS011;10343;52.402;9.796;2022-12-07T11:12:41;1.55;;;0.00;;
20367;SDS011;10343;52.402;9.796;2022-12-07T11:15:24;0.35;;;0.00;;
20367;SDS011;10343;52.402;9.796;2022-12-07T11:18:00;2.17;;;0.00;;
20367;SDS011;10343;52.402;9.796;2022-12-07T11:20:38;1.08;;;0.00;;
20367;SDS011;10343;52.402;9.796;2022-12-07T11:23:13;0.50;;;0.00;;
20367;SDS011;10343;52.402;9.796;2022-12-07T11:25:53;5.18;;;0.00;;
20367;SDS011;10343;52.402;9.796;2022-12-07T11:28:33;0.45;;;0.00;;
20367;SDS011;10343;52.402;9.796;2022-12-07T11:31:18;4.88;;;0.00;;
20367;SDS011;10343;52.402;9.796;2022-12-07T11:33:57;1.55;;;0.00;;
20367;SDS011;10343;52.402;9.796;2022-12-07T11:36:37;1.25;;;0.00;;
20367;SDS011;10343;52.402;9.796;2022-12-07T11:39:16;0.10;;;0.00;;
20367;SDS011;10343;52.402;9.796;2022-12-07T11:41:55;0.38;;;0.00;;
20367;SDS011;10343;52.402;9.796;2022-12-07T11:44:34;0.20;;;0.00;;
20367;SDS011;10343;52.402;9.796;2022-12-07T11:47:08;0.95;;;0.00;;
20367;SDS011;10343;52.402;9.796;2022-12-07T11:49:43;1.13;;;0.00;;
20367;SDS011;10343;52.402;9.796;2022-12-07T11:52:20;1.65;;;0.00;;
20367;SDS011;10343;52.402;9.796;2022-12-07T11:54:53;1.17;;;0.00;;
20367;SDS011;10343;52.402;9.796;2022-12-07T11:57:24;0.63;;;0.00;;
20367;SDS011;10343;52.402;9.796;2022-12-07T12:00:01;0.03;;;0.00;;
20367;SDS011;10343;52.402;9.796;2022-12-07T12:02:34;1.92;;;0.00;;
20367;SDS011;10343;52.402;9.796;2022-12-07T12:05:12;1.17;;;0.00;;
20367;SDS011;10343;52.402;9.796;2022-12-07T12:07:45;2.20;;;0.00;;
20367;SDS011;10343;52.402;9.796;2022-12-07T12:10:39;3.45;;;0.00;;
20367;SDS011;10343;52.402;9.796;2022-12-07T12:13:19;4.95;;;0.00;;
20367;SDS011;10343;52.402;9.796;2022-12-07T12:16:27;2.85;;;0.05;;
20367;SDS011;10343;52.402;9.796;2022-12-07T12:19:19;5.53;;;0.70;;
20367;SDS011;10343;52.402;9.796;2022-12-07T12:21:55;1.33;;;0.00;;
20367;SDS011;10343;52.402;9.796;2022-12-07T12:24:37;4.22;;;0.70;;
20367;SDS011;10343;52.402;9.796;2022-12-07T12:27:08;3.50;;;0.00;;
20367;SDS011;10343;52.402;9.796;2022-12-07T12:29:50;4.22;;;0.00;;
20367;SDS011;10343;52.402;9.796;2022-12-07T12:32:24;1.88;;;0.00;;
20367;SDS011;10343;52.402;9.796;2022-12-07T12:35:21;0.68;;;0.00;;
20367;SDS011;10343;52.402;9.796;2022-12-07T12:40:57;6.55;;;0.00;;
20367;SDS011;10343;52.402;9.796;2022-12-07T12:58:35;1.73;;;0.30;;
20367;SDS011;10343;52.402;9.796;2022-12-07T13:04:14;2.80;;;0.10;;
20367;SDS011;10343;52.402;9.796;2022-12-07T13:07:01;2.78;;;0.00;;
20367;SDS011;10343;52.402;9.796;2022-12-07T13:09:30;4.22;;;0.00;;
20367;SDS011;10343;52.402;9.796;2022-12-07T13:12:03;2.58;;;0.00;;
20367;SDS011;10343;52.402;9.796;2022-12-07T13:14:40;2.22;;;0.00;;
20367;SDS011;10343;52.402;9.796;2022-12-07T13:20:40;4.05;;;0.45;;
20367;SDS011;10343;52.402;9.796;2022-12-07T13:23:21;3.03;;;0.00;;
20367;SDS011;10343;52.402;9.796;2022-12-07T13:25:54;3.88;;;0.00;;
20367;SDS011;10343;52.402;9.796;2022-12-07T13:28:32;1.65;;;0.00;;
20367;SDS011;10343;52.402;9.796;2022-12-07T13:31:18;0.22;;;0.00;;
20367;SDS011;10343;52.402;9.796;2022-12-07T13:33:56;1.45;;;0.00;;
20367;SDS011;10343;52.402;9.796;2022-12-07T13:36:24;6.78;;;0.40;;
20367;SDS011;10343;52.402;9.796;2022-12-07T13:38:56;6.68;;;0.00;;
20367;SDS011;10343;52.402;9.796;2022-12-07T13:41:25;1.50;;;0.00;;
20367;SDS011;10343;52.402;9.796;2022-12-07T13:44:00;0.30;;;0.00;;
20367;SDS011;10343;52.402;9.796;2022-12-07T13:46:35;0.57;;;0.00;;
20367;SDS011;10343;52.402;9.796;2022-12-07T13:49:17;6.07;;;0.10;;
20367;SDS011;10343;52.402;9.796;2022-12-07T13:51:47;3.92;;;0.00;;
20367;SDS011;10343;52.402;9.796;2022-12-07T13:54:18;2.15;;;0.00;;
20367;SDS011;10343;52.402;9.796;2022-12-07T13:56:47;1.77;;;0.00;;
20367;SDS011;10343;52.402;9.796;2022-12-07T13:59:18;1.15;;;0.00;;
20367;SDS011;10343;52.402;9.796;2022-12-07T14:01:49;6.78;;;0.00;;
20367;SDS011;10343;52.402;9.796;2022-12-07T14:04:24;2.22;;;0.00;;
20367;SDS011;10343;52.402;9.796;2022-12-07T14:06:58;4.72;;;0.00;;
20367;SDS011;10343;52.402;9.796;2022-12-07T14:09:29;4.18;;;0.00;;
20367;SDS011;10343;52.402;9.796;2022-12-07T14:11:58;2.05;;;0.00;;
20367;SDS011;10343;52.402;9.796;2022-12-07T14:14:27;2.67;;;0.00;;
20367;SDS011;10343;52.402;9.796;2022-12-07T14:17:08;3.35;;;0.00;;
20367;SDS011;10343;52.402;9.796;2022-12-07T14:19:49;1.33;;;0.00;;
20367;SDS011;10343;52.402;9.796;2022-12-07T14:22:22;2.50;;;0.00;;
20367;SDS011;10343;52.402;9.796;2022-12-07T14:27:49;1.25;;;0.00;;
20367;SDS011;10343;52.402;9.796;2022-12-07T14:30:23;0.85;;;0.00;;
20367;SDS011;10343;52.402;9.796;2022-12-07T14:32:54;0.45;;;0.00;;
20367;SDS011;10343;52.402;9.796;2022-12-07T14:35:25;1.65;;;0.00;;
20367;SDS011;10343;52.402;9.796;2022-12-07T14:37:54;5.28;;;0.00;;
20367;SDS011;10343;52.402;9.796;2022-12-07T14:40:24;1.58;;;0.00;;
20367;SDS011;10343;52.402;9.796;2022-12-07T14:42:57;3.03;;;0.10;;
20367;SDS011;10343;52.402;9.796;2022-12-07T14:45:36;1.20;;;0.00;;
20367;SDS011;10343;52.402;9.796;2022-12-07T14:48:06;1.80;;;0.00;;
20367;SDS011;10343;52.402;9.796;2022-12-07T14:50:58;2.28;;;0.00;;
20367;SDS011;10343;52.402;9.796;2022-12-07T14:53:48;5.15;;;0.00;;
20367;SDS011;10343;52.402;9.796;2022-12-07T14:56:24;1.85;;;0.00;;
20367;SDS011;10343;52.402;9.796;2022-12-07T14:58:54;6.30;;;0.20;;
20367;SDS011;10343;52.402;9.796;2022-12-07T15:01:22;1.05;;;0.00;;
20367;SDS011;10343;52.402;9.796;2022-12-07T15:03:50;2.00;;;0.00;;
20367;SDS011;10343;52.402;9.796;2022-12-07T15:06:18;1.75;;;0.00;;
20367;SDS011;10343;52.402;9.796;2022-12-07T15:08:47;8.55;;;0.00;;
20367;SDS011;10343;52.402;9.796;2022-12-07T15:11:16;4.57;;;0.00;;
20367;SDS011;10343;52.402;9.796;2022-12-07T15:13:47;4.93;;;0.00;;
20367;SDS011;10343;52.402;9.796;2022-12-07T15:16:33;0.93;;;0.00;;
20367;SDS011;10343;52.402;9.796;2022-12-07T15:19:23;6.20;;;0.03;;
20367;SDS011;10343;52.402;9.796;2022-12-07T15:21:55;2.08;;;0.00;;
20367;SDS011;10343;52.402;9.796;2022-12-07T15:24:27;1.83;;;0.20;;
20367;SDS011;10343;52.402;9.796;2022-12-07T15:26:55;2.47;;;0.00;;
20367;SDS011;10343;52.402;9.796;2022-12-07T15:29:26;5.60;;;0.00;;
20367;SDS011;10343;52.402;9.796;2022-12-07T15:31:56;3.40;;;0.00;;
20367;SDS011;10343;52.402;9.796;2022-12-07T15:34:25;0.90;;;0.00;;
20367;SDS011;10343;52.402;9.796;2022-12-07T15:37:04;3.00;;;0.00;;
20367;SDS011;10343;52.402;9.796;2022-12-07T15:39:35;4.22;;;0.00;;
20367;SDS011;10343;52.402;9.796;2022-12-07T15:42:05;1.20;;;0.10;;
20367;SDS011;10343;52.402;9.796;2022-12-07T15:44:34;3.45;;;0.00;;
20367;SDS011;10343;52.402;9.796;2022-12-07T15:47:20;2.45;;;0.00;;
20367;SDS011;10343;52.402;9.796;2022-12-07T15:49:49;3.42;;;0.00;;
20367;SDS011;10343;52.402;9.796;2022-12-07T15:52:18;2.20;;;0.00;;
20367;SDS011;10343;52.402;9.796;2022-12-07T15:54:47;0.57;;;0.00;;
20367;SDS011;10343;52.402;9.796;2022-12-07T15:57:15;0.73;;;0.00;;
20367;SDS011;10343;52.402;9.796;2022-12-07T15:59:52;0.63;;;0.00;;
20367;SDS011;10343;52.402;9.796;2022-12-07T16:02:20;7.43;;;0.20;;
20367;SDS011;10343;52.402;9.796;2022-12-07T16:04:49;1.55;;;0.00;;
20367;SDS011;10343;52.402;9.796;2022-12-07T16:07:17;2.15;;;0.00;;
20367;SDS011;10343;52.402;9.796;2022-12-07T16:09:45;2.67;;;0.00;;
20367;SDS011;10343;52.402;9.796;2022-12-07T16:12:15;8.80;;;0.00;;
20367;SDS011;10343;52.402;9.796;2022-12-07T16:14:44;4.75;;;0.00;;
20367;SDS011;10343;52.402;9.796;2022-12-07T16:17:14;1.60;;;0.00;;
20367;SDS011;10343;52.402;9.796;2022-12-07T16:19:42;1.30;;;0.05;;
20367;SDS011;10343;52.402;9.796;2022-12-07T16:22:10;4.13;;;0.00;;
20367;SDS011;10343;52.402;9.796;2022-12-07T16:24:38;1.27;;;0.00;;
20367;SDS011;10343;52.402;9.796;2022-12-07T16:27:06;4.85;;;0.00;;
20367;SDS011;10343;52.402;9.796;2022-12-07T16:29:35;5.70;;;0.00;;
20367;SDS011;10343;52.402;9.796;2022-12-07T16:32:03;5.05;;;0.00;;
20367;SDS011;10343;52.402;9.796;2022-12-07T16:34:33;6.35;;;0.10;;
20367;SDS011;10343;52.402;9.796;2022-12-07T16:37:01;3.25;;;0.10;;
20367;SDS011;10343;52.402;9.796;2022-12-07T16:39:31;2.40;;;0.00;;
20367;SDS011;10343;52.402;9.796;2022-12-07T16:42:00;1.27;;;0.00;;
20367;SDS011;10343;52.402;9.796;2022-12-07T16:44:28;2.88;;;0.00;;
20367;SDS011;10343;52.402;9.796;2022-12-07T16:46:57;2.47;;;0.00;;
20367;SDS011;10343;52.402;9.796;2022-12-07T16:49:27;2.55;;;0.00;;
20367;SDS011;10343;52.402;9.796;2022-12-07T16:51:56;7.28;;;0.80;;
20367;SDS011;10343;52.402;9.796;2022-12-07T16:54:47;2.83;;;0.00;;
20367;SDS011;10343;52.402;9.796;2022-12-07T16:57:17;4.32;;;0.00;;
20367;SDS011;10343;52.402;9.796;2022-12-07T16:59:51;3.55;;;0.00;;
20367;SDS011;10343;52.402;9.796;2022-12-07T17:02:20;2.95;;;0.00;;
20367;SDS011;10343;52.402;9.796;2022-12-07T17:04:48;2.65;;;0.05;;
20367;SDS011;10343;52.402;9.796;2022-12-07T17:07:19;2.78;;;0.00;;
20367;SDS011;10343;52.402;9.796;2022-12-07T17:09:47;3.65;;;0.10;;
20367;SDS011;10343;52.402;9.796;2022-12-07T17:12:15;1.55;;;0.00;;
20367;SDS011;10343;52.402;9.796;2022-12-07T17:14:45;2.08;;;0.00;;
20367;SDS011;10343;52.402;9.796;2022-12-07T17:17:30;0.93;;;0.00;;
20367;SDS011;10343;52.402;9.796;2022-12-07T17:19:59;3.03;;;0.00;;
20367;SDS011;10343;52.402;9.796;2022-12-07T17:22:28;5.10;;;0.00;;
20367;SDS011;10343;52.402;9.796;2022-12-07T17:24:56;1.00;;;0.00;;
20367;SDS011;10343;52.402;9.796;2022-12-07T17:27:24;4.68;;;0.05;;
20367;SDS011;10343;52.402;9.796;2022-12-07T17:29:52;3.72;;;0.00;;
20367;SDS011;10343;52.402;9.796;2022-12-07T17:32:20;4.82;;;0.00;;
20367;SDS011;10343;52.402;9.796;2022-12-07T17:34:48;4.00;;;0.00;;
20367;SDS011;10343;52.402;9.796;2022-12-07T17:37:16;7.53;;;0.75;;
20367;SDS011;10343;52.402;9.796;2022-12-07T17:39:45;4.07;;;0.00;;
20367;SDS011;10343;52.402;9.796;2022-12-07T17:42:13;4.28;;;0.20;;
20367;SDS011;10343;52.402;9.796;2022-12-07T17:44:59;6.93;;;0.00;;
20367;SDS011;10343;52.402;9.796;2022-12-07T17:47:27;0.10;;;0.00;;
20367;SDS011;10343;52.402;9.796;2022-12-07T17:49:56;0.32;;;0.00;;
20367;SDS011;10343;52.402;9.796;2022-12-07T17:52:32;4.35;;;0.00;;
20367;SDS011;10343;52.402;9.796;2022-12-07T17:55:19;2.72;;;0.00;;
20367;SDS011;10343;52.402;9.796;2022-12-07T17:57:47;1.58;;;0.00;;
20367;SDS011;10343;52.402;9.796;2022-12-07T18:00:15;0.05;;;0.00;;
20367;SDS011;10343;52.402;9.796;2022-12-07T18:02:44;0.08;;;0.00;;
20367;SDS011;10343;52.402;9.796;2022-12-07T18:05:12;0.85;;;0.00;;
20367;SDS011;10343;52.402;9.796;2022-12-07T18:07:41;2.72;;;0.00;;
20367;SDS011;10343;52.402;9.796;2022-12-07T18:10:09;2.70;;;0.00;;
20367;SDS011;10343;52.402;9.796;2022-12-07T18:12:39;1.50;;;0.00;;
20367;SDS011;10343;52.402;9.796;2022-12-07T18:15:07;1.02;;;0.00;;
20367;SDS011;10343;52.402;9.796;2022-12-07T18:17:35;0.75;;;0.00;;
20367;SDS011;10343;52.402;9.796;2022-12-07T18:20:04;0.90;;;0.00;;
20367;SDS011;10343;52.402;9.796;2022-12-07T18:22:33;4.75;;;0.00;;